Carnival Triumph — C6FN5 — position and weather

sailwx.info

Track history (hours):
 
Tides and Currents Weather Stations Pressure Air Temp Water Temp Dewpoint Dewpoint Depression Visibility Wind Speed Wind Dir Waves Ship Positions

Carnival Triumph

Operator: Carnival Cruise Lines

Last reported at 2020-Oct-27 16:48 UTC. Time now 2020-Oct-28 05:32 UTC.
Position N 25°47' W 078°26'.

Type: Passenger vessel. MMSI: 308045000.

Date/timePositionNaut miles runAvg speedWind from/ knotsBaromVisibWave heightAir tempDewpointWater temp
2020-Oct-27 16:48N 25°47' W 078°26'0 0.0
2020-Oct-27 12:24N 25°47' W 078°26'0 0.0
2020-Oct-27 10:57N 25°47' W 078°26'0 0.1
2020-Oct-27 10:06N 25°47' W 078°26'0 0.1
2020-Oct-27 09:30N 25°47' W 078°26'  
2020-Oct-22 18:29N 26°20' W 079°23'4 7.6
2020-Oct-22 18:01N 26°16' W 079°25'22 7.4
2020-Oct-22 15:01N 25°57' W 079°37'4 7.7
2020-Oct-22 14:31N 25°53' W 079°38'4 7.9
2020-Oct-22 14:01N 25°49' W 079°39'14 4.8
2020-Oct-22 11:00N 25°35' W 079°36'2 3.6
2020-Oct-22 10:29N 25°37' W 079°36'10 4.1
2020-Oct-22 08:01N 25°47' W 079°35'3 5.1
2020-Oct-22 07:31N 25°50' W 079°34'6 5.6
2020-Oct-22 06:31N 25°54' W 079°31'9 5.7
2020-Oct-22 05:01N 26°02' W 079°27'  
Track history (hours):
 
Tides and Currents Weather Stations Pressure Air Temp Water Temp Dewpoint Dewpoint Depression Visibility Wind Speed Wind Dir Waves Ship Positions

Carnival Triumph

Operator: Carnival Cruise Lines

Last reported at 2020-Oct-27 16:48 UTC. Time now 2020-Oct-28 05:32 UTC.
Position N 25°47' W 078°26'.

Type: Passenger vessel. MMSI: 308045000.

Date/timePositionNaut miles runAvg speedWind from/ knotsBaromVisibWave heightAir tempDewpointWater temp
2020-Oct-27 16:48N 25°47' W 078°26'0 0.0
2020-Oct-27 12:24N 25°47' W 078°26'0 0.0
2020-Oct-27 10:57N 25°47' W 078°26'0 0.1
2020-Oct-27 10:06N 25°47' W 078°26'0 0.1
2020-Oct-27 09:30N 25°47' W 078°26'  
2020-Oct-22 18:29N 26°20' W 079°23'4 7.6
2020-Oct-22 18:01N 26°16' W 079°25'22 7.4
2020-Oct-22 15:01N 25°57' W 079°37'4 7.7
2020-Oct-22 14:31N 25°53' W 079°38'4 7.9
2020-Oct-22 14:01N 25°49' W 079°39'14 4.8
2020-Oct-22 11:00N 25°35' W 079°36'2 3.6
2020-Oct-22 10:29N 25°37' W 079°36'10 4.1
2020-Oct-22 08:01N 25°47' W 079°35'3 5.1
2020-Oct-22 07:31N 25°50' W 079°34'6 5.6
2020-Oct-22 06:31N 25°54' W 079°31'9 5.7
2020-Oct-22 05:01N 26°02' W 079°27'  

Dump ship's entire track history